createdAt,value
2019-01-17T00:01:49.546Z,2.77
2019-01-17T00:04:52.512Z,4.23
2019-01-17T00:07:35.461Z,3.57
2019-01-17T00:10:29.830Z,4.10
2019-01-17T00:13:35.570Z,3.40
2019-01-17T00:16:28.194Z,3.77
2019-01-17T00:19:16.860Z,3.90
2019-01-17T00:22:07.292Z,3.07
2019-01-17T00:25:03.816Z,3.53
2019-01-17T00:27:50.119Z,3.40
2019-01-17T00:30:39.646Z,3.70
2019-01-17T00:33:30.174Z,3.97
2019-01-17T00:36:11.841Z,3.20
2019-01-17T00:38:58.467Z,2.93
2019-01-17T00:41:40.036Z,2.43
2019-01-17T00:44:30.566Z,2.60
2019-01-17T00:47:17.472Z,1.50
2019-01-17T00:50:03.866Z,1.40
2019-01-17T00:52:50.002Z,1.23
2019-01-17T00:55:30.578Z,0.93
2019-01-17T00:58:33.554Z,0.97
2019-01-17T01:01:12.882Z,0.73
2019-01-17T01:04:06.673Z,0.73
2019-01-17T01:06:55.639Z,0.50
2019-01-17T01:09:40.479Z,0.87
2019-01-17T01:12:23.907Z,0.87
2019-01-17T01:15:14.349Z,1.00
2019-01-17T01:18:03.102Z,0.30
2019-01-17T01:20:49.854Z,0.47
2019-01-17T01:23:46.430Z,0.57
2019-01-17T01:26:39.765Z,0.40
2019-01-17T01:29:39.217Z,0.23
2019-01-17T01:32:32.350Z,0.30
2019-01-17T01:35:22.970Z,0.23
2019-01-17T01:38:09.249Z,0.30
2019-01-17T01:40:55.845Z,0.70
2019-01-17T01:43:46.661Z,0.23
2019-01-17T01:46:32.194Z,0.40
2019-01-17T01:49:24.846Z,0.30
2019-01-17T01:52:02.902Z,0.33
2019-01-17T01:54:31.363Z,0.50
2019-01-17T01:56:59.856Z,0.40
2019-01-17T01:59:28.238Z,0.53
2019-01-17T02:01:56.558Z,0.50
2019-01-17T02:04:24.986Z,0.60
2019-01-17T02:06:53.383Z,0.20
2019-01-17T02:09:21.697Z,0.40
2019-01-17T02:11:50.158Z,0.37
2019-01-17T02:14:18.847Z,0.50
2019-01-17T02:16:47.351Z,0.20
2019-01-17T02:19:15.709Z,0.30
2019-01-17T02:21:44.117Z,0.33
2019-01-17T02:24:12.502Z,0.50
2019-01-17T02:26:40.919Z,0.50
2019-01-17T02:29:09.444Z,0.30
2019-01-17T02:31:37.982Z,0.30
2019-01-17T02:34:07.547Z,0.20
2019-01-17T02:36:36.014Z,0.40
2019-01-17T02:39:06.090Z,0.20
2019-01-17T02:41:34.541Z,0.43
2019-01-17T02:44:03.071Z,0.20
2019-01-17T02:46:31.565Z,0.57
2019-01-17T02:48:59.881Z,0.43
2019-01-17T02:51:28.221Z,0.40
2019-01-17T02:53:56.561Z,0.30
2019-01-17T02:56:24.987Z,0.43
2019-01-17T02:58:53.336Z,0.30
2019-01-17T03:01:21.789Z,0.37
2019-01-17T03:03:50.304Z,0.33
2019-01-17T03:06:18.685Z,0.53
2019-01-17T03:08:47.222Z,0.20
2019-01-17T03:11:15.553Z,0.33
2019-01-17T03:13:43.947Z,0.63
2019-01-17T03:16:12.287Z,0.70
2019-01-17T03:18:43.810Z,0.80
2019-01-17T03:21:12.162Z,0.20
2019-01-17T03:23:40.521Z,0.40
2019-01-17T03:26:08.894Z,0.50
2019-01-17T03:28:37.293Z,0.57
2019-01-17T03:31:05.777Z,0.20
2019-01-17T03:33:34.199Z,0.30
2019-01-17T03:36:02.650Z,0.60
2019-01-17T03:38:31.170Z,0.53
2019-01-17T03:40:59.563Z,0.90
2019-01-17T03:43:28.003Z,0.60
2019-01-17T03:45:56.432Z,0.90
2019-01-17T03:48:24.827Z,0.73
2019-01-17T03:50:56.417Z,1.30
2019-01-17T03:53:24.839Z,1.00
2019-01-17T03:55:53.672Z,0.83
2019-01-17T03:58:22.141Z,0.70
2019-01-17T04:00:50.487Z,0.87
2019-01-17T04:03:18.885Z,0.87
2019-01-17T04:05:47.313Z,0.87
2019-01-17T04:08:15.662Z,0.80
2019-01-17T04:10:44.038Z,1.00
2019-01-17T04:13:12.349Z,1.30
2019-01-17T04:15:40.799Z,1.00
2019-01-17T04:18:09.133Z,0.97
2019-01-17T04:20:37.475Z,1.00
2019-01-17T04:23:05.833Z,1.10
2019-01-17T04:25:34.395Z,1.03
2019-01-17T04:28:02.775Z,0.77
2019-01-17T04:30:31.093Z,1.40
2019-01-17T04:32:59.713Z,1.17
2019-01-17T04:35:28.063Z,1.13
2019-01-17T04:37:56.565Z,1.23
2019-01-17T04:40:24.940Z,1.77
2019-01-17T04:42:53.361Z,1.83
2019-01-17T04:45:21.781Z,1.50
2019-01-17T04:47:50.187Z,1.50
2019-01-17T04:50:18.605Z,1.43
2019-01-17T04:52:46.926Z,1.50
2019-01-17T04:55:15.461Z,1.27
2019-01-17T04:57:43.819Z,1.03
2019-01-17T05:00:13.891Z,1.30
2019-01-17T05:02:42.323Z,1.20
2019-01-17T05:05:11.820Z,1.57
2019-01-17T05:07:40.153Z,1.40
2019-01-17T05:10:08.965Z,1.03
2019-01-17T05:12:37.646Z,1.43
2019-01-17T05:15:06.046Z,1.27
2019-01-17T05:17:34.488Z,1.80
2019-01-17T05:20:02.927Z,1.40
2019-01-17T05:22:31.475Z,1.33
2019-01-17T05:24:59.802Z,1.10
2019-01-17T05:27:28.668Z,1.23
2019-01-17T05:29:57.038Z,1.33
2019-01-17T05:32:25.462Z,1.50
2019-01-17T05:34:53.798Z,1.50
2019-01-17T05:37:22.151Z,1.60
2019-01-17T05:39:50.485Z,1.37
2019-01-17T05:42:18.827Z,1.20
2019-01-17T05:44:47.210Z,1.47
2019-01-17T05:47:15.542Z,1.20
2019-01-17T05:49:44.002Z,1.23
2019-01-17T05:52:12.374Z,1.63
2019-01-17T05:54:40.913Z,1.37
2019-01-17T05:57:09.449Z,1.50
2019-01-17T05:59:43.828Z,1.37
2019-01-17T06:02:12.446Z,1.77
2019-01-17T06:04:40.963Z,1.70
2019-01-17T06:07:09.379Z,1.60
2019-01-17T06:09:37.792Z,1.10
2019-01-17T06:12:06.222Z,1.73
2019-01-17T06:14:34.583Z,1.50
2019-01-17T06:17:02.951Z,1.60
2019-01-17T06:19:31.413Z,2.00
2019-01-17T06:21:59.754Z,1.90
2019-01-17T06:24:28.117Z,1.50
2019-01-17T06:26:56.443Z,2.10
2019-01-17T06:29:24.814Z,3.27
2019-01-17T06:31:53.145Z,2.23
2019-01-17T06:34:21.534Z,1.93
2019-01-17T06:36:50.046Z,2.00
2019-01-17T06:39:18.485Z,2.00
2019-01-17T06:41:46.830Z,2.27
2019-01-17T06:44:20.307Z,1.07
2019-01-17T06:46:45.320Z,1.73
2019-01-17T06:49:13.690Z,2.10
2019-01-17T06:51:42.033Z,1.70
2019-01-17T06:54:10.463Z,1.80
2019-01-17T06:56:38.916Z,1.60
2019-01-17T06:59:07.370Z,1.70
2019-01-17T07:01:35.677Z,2.50
2019-01-17T07:04:04.081Z,2.17
2019-01-17T07:06:32.493Z,1.83
2019-01-17T07:09:00.822Z,2.33
2019-01-17T07:11:29.299Z,2.40
2019-01-17T07:13:57.693Z,2.00
2019-01-17T07:16:26.042Z,2.37
2019-01-17T07:18:54.466Z,1.90
2019-01-17T07:21:22.991Z,1.77
2019-01-17T07:23:51.523Z,1.83
2019-01-17T07:26:19.938Z,2.10
2019-01-17T07:28:48.364Z,1.73
2019-01-17T07:31:16.757Z,1.83
2019-01-17T07:33:45.758Z,2.50
2019-01-17T07:36:14.178Z,2.33
2019-01-17T07:38:42.546Z,1.70
2019-01-17T07:41:10.882Z,2.13
2019-01-17T07:43:39.279Z,2.20
2019-01-17T07:46:07.674Z,2.23
2019-01-17T07:48:36.011Z,2.67
2019-01-17T07:51:04.618Z,2.77
2019-01-17T07:53:33.138Z,2.00
2019-01-17T07:56:01.761Z,1.97
2019-01-17T07:58:30.145Z,3.17
2019-01-17T08:00:58.554Z,2.50
2019-01-17T08:03:26.959Z,2.63
2019-01-17T08:05:55.397Z,1.77
2019-01-17T08:08:23.837Z,2.33
2019-01-17T08:10:52.330Z,2.90
2019-01-17T08:13:21.093Z,3.07
2019-01-17T08:15:49.514Z,2.70
2019-01-17T08:18:18.838Z,2.17
2019-01-17T08:20:47.473Z,2.53
2019-01-17T08:23:15.873Z,2.13
2019-01-17T08:25:44.267Z,3.00
2019-01-17T08:28:12.739Z,1.93
2019-01-17T08:30:41.575Z,1.80
2019-01-17T08:33:12.269Z,2.93
2019-01-17T08:35:40.742Z,2.30
2019-01-17T08:38:09.299Z,2.23
2019-01-17T08:40:38.770Z,2.03
2019-01-17T08:43:26.398Z,1.60
2019-01-17T08:46:00.841Z,2.13
2019-01-17T08:48:29.197Z,1.87
2019-01-17T08:50:57.582Z,1.73
2019-01-17T08:53:26.070Z,2.30
2019-01-17T08:56:00.594Z,2.73
2019-01-17T08:58:24.786Z,2.97
2019-01-17T09:00:54.301Z,2.87
2019-01-17T09:03:22.697Z,2.30
2019-01-17T09:05:51.058Z,1.93
2019-01-17T09:08:22.301Z,1.70
2019-01-17T09:10:50.690Z,2.50
2019-01-17T09:13:19.162Z,2.83
2019-01-17T09:15:47.523Z,1.87
2019-01-17T09:18:17.765Z,2.27
2019-01-17T09:20:48.568Z,2.53
2019-01-17T09:23:17.169Z,2.50
2019-01-17T09:25:45.526Z,2.20
2019-01-17T09:28:13.854Z,2.83
2019-01-17T09:30:42.542Z,2.20
2019-01-17T09:33:10.854Z,2.73
2019-01-17T09:35:39.212Z,1.90
2019-01-17T09:38:07.514Z,2.73
2019-01-17T09:40:35.872Z,1.60
2019-01-17T09:43:04.272Z,1.60
2019-01-17T09:45:32.705Z,2.33
2019-01-17T09:48:02.058Z,1.50
2019-01-17T09:50:30.670Z,1.87
2019-01-17T09:52:59.018Z,2.00
2019-01-17T09:55:27.388Z,2.40
2019-01-17T09:57:55.805Z,2.97
2019-01-17T10:00:25.370Z,1.73
2019-01-17T10:02:53.795Z,2.77
2019-01-17T10:05:22.221Z,1.77
2019-01-17T10:07:50.710Z,2.27
2019-01-17T10:10:19.197Z,2.77
2019-01-17T10:12:47.597Z,1.97
2019-01-17T10:15:17.630Z,1.57
2019-01-17T10:17:50.050Z,2.03
2019-01-17T10:20:34.969Z,2.83
2019-01-17T10:23:25.483Z,1.70
2019-01-17T10:26:03.329Z,1.87
2019-01-17T10:29:03.034Z,2.37
2019-01-17T10:31:35.978Z,2.27
2019-01-17T10:34:17.245Z,2.13
2019-01-17T10:36:56.410Z,2.40
2019-01-17T10:40:02.233Z,3.00
2019-01-17T10:43:02.017Z,2.40
2019-01-17T10:45:52.319Z,2.67
2019-01-17T10:48:38.589Z,2.30
2019-01-17T10:51:12.128Z,1.80
2019-01-17T10:53:59.669Z,2.60
2019-01-17T10:56:41.057Z,2.10
2019-01-17T10:59:23.395Z,2.17
2019-01-17T11:01:56.147Z,3.07
2019-01-17T11:04:42.632Z,3.30
2019-01-17T11:07:14.910Z,2.77
2019-01-17T11:10:01.374Z,2.23
2019-01-17T11:12:37.449Z,1.67
2019-01-17T11:15:23.228Z,2.80
2019-01-17T11:18:01.582Z,3.00
2019-01-17T11:20:49.121Z,2.70
2019-01-17T11:23:22.613Z,1.63
2019-01-17T11:26:00.415Z,2.10
2019-01-17T11:28:46.940Z,2.10
2019-01-17T11:31:40.514Z,2.10
2019-01-17T11:34:28.143Z,1.80
2019-01-17T11:37:18.802Z,1.73
2019-01-17T11:39:54.221Z,1.23
2019-01-17T11:42:42.732Z,1.60
2019-01-17T11:45:21.234Z,1.00
2019-01-17T11:48:02.159Z,0.80
2019-01-17T11:50:35.036Z,1.20
2019-01-17T11:53:21.377Z,0.40
2019-01-17T11:56:08.966Z,0.30
2019-01-17T11:58:59.914Z,0.40
2019-01-17T12:01:53.717Z,0.33
2019-01-17T12:04:31.100Z,0.13
2019-01-17T12:07:01.269Z,0.20
2019-01-17T12:09:29.806Z,0.00
2019-01-17T12:11:58.117Z,0.20
2019-01-17T12:14:26.506Z,0.20
2019-01-17T12:16:54.918Z,0.10
2019-01-17T12:19:23.311Z,0.07
2019-01-17T12:21:51.615Z,0.10
2019-01-17T12:24:20.088Z,0.20
2019-01-17T12:26:48.398Z,0.30
2019-01-17T12:29:16.798Z,0.40
2019-01-17T12:31:45.117Z,0.03
2019-01-17T12:34:13.630Z,0.10
2019-01-17T12:36:41.972Z,0.17
2019-01-17T12:39:11.294Z,0.20
2019-01-17T12:41:39.630Z,0.30
2019-01-17T12:44:08.064Z,0.33
2019-01-17T12:46:36.573Z,0.20
2019-01-17T12:49:05.162Z,0.27
2019-01-17T12:51:33.610Z,0.23
2019-01-17T12:54:01.918Z,0.60
2019-01-17T12:56:30.299Z,0.20
2019-01-17T12:58:58.637Z,0.33
2019-01-17T13:01:26.966Z,0.10
2019-01-17T13:03:55.466Z,0.13
2019-01-17T13:06:23.758Z,0.57
2019-01-17T13:08:52.158Z,0.20
2019-01-17T13:11:20.557Z,0.23
2019-01-17T13:13:48.945Z,0.23
2019-01-17T13:16:17.369Z,0.33
2019-01-17T13:18:45.689Z,0.30
2019-01-17T13:21:14.182Z,0.23
2019-01-17T13:23:42.834Z,0.60
2019-01-17T13:26:11.254Z,0.30
2019-01-17T13:28:39.691Z,0.20
2019-01-17T13:31:08.025Z,0.30
2019-01-17T13:33:38.590Z,0.30
2019-01-17T13:36:10.929Z,0.40
2019-01-17T13:38:39.358Z,0.50
2019-01-17T13:41:07.842Z,0.50
2019-01-17T13:43:36.276Z,0.33
2019-01-17T13:46:04.766Z,0.10
2019-01-17T13:48:33.186Z,0.70
2019-01-17T13:51:01.550Z,0.87
2019-01-17T13:53:29.950Z,0.30
2019-01-17T13:55:58.354Z,0.40
2019-01-17T13:58:26.863Z,0.80
2019-01-17T14:00:55.263Z,0.43
2019-01-17T14:03:23.790Z,0.30
2019-01-17T14:05:52.122Z,0.27
2019-01-17T14:08:20.429Z,0.23
2019-01-17T14:10:48.785Z,0.20
2019-01-17T14:13:17.097Z,0.07
2019-01-17T14:15:45.434Z,0.23
2019-01-17T14:18:13.830Z,0.30
2019-01-17T14:20:42.196Z,0.20
2019-01-17T14:23:10.506Z,0.13
2019-01-17T14:25:38.958Z,0.40
2019-01-17T14:28:07.409Z,0.40
2019-01-17T14:30:35.925Z,0.20
2019-01-17T14:33:04.401Z,0.20
2019-01-17T14:35:32.939Z,0.57
2019-01-17T14:38:01.262Z,0.10
2019-01-17T14:40:29.618Z,0.20
2019-01-17T14:42:57.931Z,0.27
2019-01-17T14:45:26.300Z,0.27
2019-01-17T14:47:54.674Z,0.17
2019-01-17T14:50:24.101Z,0.20
2019-01-17T14:52:52.670Z,0.40
2019-01-17T14:55:21.101Z,0.60
2019-01-17T14:57:49.535Z,0.73
2019-01-17T15:00:18.875Z,0.67
2019-01-17T15:02:49.672Z,0.53
2019-01-17T15:05:18.142Z,0.37
2019-01-17T15:07:46.938Z,0.67
2019-01-17T15:10:16.913Z,0.20
2019-01-17T15:12:45.530Z,0.73
2019-01-17T15:15:14.534Z,0.70
2019-01-17T15:17:42.934Z,0.27
2019-01-17T15:20:12.787Z,0.37
2019-01-17T15:22:41.338Z,0.80
2019-01-17T15:25:09.726Z,0.60
2019-01-17T15:27:38.141Z,0.50
2019-01-17T15:30:07.893Z,0.83
2019-01-17T15:32:36.286Z,0.30
2019-01-17T15:35:04.713Z,0.70
2019-01-17T15:37:33.022Z,0.93
2019-01-17T15:40:01.456Z,0.83
2019-01-17T15:42:29.856Z,1.00
2019-01-17T15:44:58.186Z,0.47
2019-01-17T15:47:26.562Z,0.97
2019-01-17T15:49:54.899Z,0.70
2019-01-17T15:52:23.221Z,0.20
2019-01-17T15:54:51.690Z,0.57
2019-01-17T15:57:20.002Z,0.87
2019-01-17T15:59:48.364Z,0.60
2019-01-17T16:02:16.666Z,0.77
2019-01-17T16:04:45.054Z,0.90
2019-01-17T16:07:13.433Z,0.70
2019-01-17T16:09:41.761Z,0.70
2019-01-17T16:12:10.097Z,0.40
2019-01-17T16:14:38.432Z,0.30
2019-01-17T16:17:06.829Z,0.57
2019-01-17T16:19:35.205Z,0.70
2019-01-17T16:22:03.599Z,0.30
2019-01-17T16:24:31.918Z,1.03
2019-01-17T16:27:00.261Z,0.60
2019-01-17T16:29:28.626Z,0.13
2019-01-17T16:31:56.956Z,0.37
2019-01-17T16:34:25.899Z,0.40
2019-01-17T16:36:54.282Z,0.20
2019-01-17T16:39:22.642Z,0.27
2019-01-17T16:41:51.074Z,0.13
2019-01-17T16:44:19.484Z,0.70
2019-01-17T16:46:47.858Z,0.10
2019-01-17T16:49:16.274Z,0.67
2019-01-17T16:51:44.622Z,1.17
2019-01-17T16:54:12.925Z,0.17
2019-01-17T16:56:41.261Z,0.40
2019-01-17T16:59:09.606Z,0.50
2019-01-17T17:01:37.966Z,0.10
2019-01-17T17:04:06.323Z,0.50
2019-01-17T17:06:34.705Z,0.73
2019-01-17T17:09:03.950Z,0.40
2019-01-17T17:11:32.354Z,0.43
2019-01-17T17:14:02.156Z,0.30
2019-01-17T17:16:30.555Z,0.93
2019-01-17T17:18:58.972Z,1.90
2019-01-17T17:21:27.452Z,1.30
2019-01-17T17:23:55.832Z,1.10
2019-01-17T17:26:24.284Z,1.17
2019-01-17T17:28:52.714Z,0.47
2019-01-17T17:31:21.427Z,0.30
2019-01-17T17:33:50.053Z,0.60
2019-01-17T17:36:18.503Z,0.60
2019-01-17T17:38:46.895Z,0.63
2019-01-17T17:41:15.753Z,11.93
2019-01-17T17:43:44.416Z,2.73
2019-01-17T17:46:12.972Z,1.50
2019-01-17T17:48:41.522Z,0.77
2019-01-17T17:51:09.865Z,0.50
2019-01-17T17:53:38.206Z,0.40
2019-01-17T17:56:06.581Z,0.40
2019-01-17T17:58:34.906Z,0.90
2019-01-17T18:01:08.403Z,0.60
2019-01-17T18:03:36.709Z,0.40
2019-01-17T18:06:05.855Z,0.30
2019-01-17T18:08:34.149Z,0.40
2019-01-17T18:11:02.512Z,0.30
2019-01-17T18:13:30.898Z,0.17
2019-01-17T18:15:59.226Z,0.33
2019-01-17T18:18:27.705Z,0.20
2019-01-17T18:20:56.077Z,0.20
2019-01-17T18:23:24.382Z,0.70
2019-01-17T18:25:52.704Z,0.40
2019-01-17T18:28:21.025Z,0.40
2019-01-17T18:30:49.350Z,0.30
2019-01-17T18:33:17.754Z,0.47
2019-01-17T18:35:46.189Z,0.40
2019-01-17T18:38:14.613Z,0.70
2019-01-17T18:40:55.502Z,0.30
2019-01-17T18:43:23.898Z,0.40
2019-01-17T18:45:52.311Z,0.50
2019-01-17T18:48:20.726Z,0.40
2019-01-17T18:50:49.061Z,0.50
2019-01-17T18:53:17.445Z,0.83
2019-01-17T18:55:48.331Z,0.70
2019-01-17T18:58:17.069Z,0.60
2019-01-17T19:00:45.459Z,0.40
2019-01-17T19:03:13.846Z,0.60
2019-01-17T19:05:42.162Z,0.70
2019-01-17T19:08:10.502Z,1.00
2019-01-17T19:10:38.882Z,1.00
2019-01-17T19:13:07.285Z,0.80
2019-01-17T19:15:35.697Z,0.90
2019-01-17T19:18:04.090Z,0.60
2019-01-17T19:20:32.524Z,1.10
2019-01-17T19:23:00.898Z,1.00
2019-01-17T19:25:29.417Z,0.90
2019-01-17T19:27:57.756Z,1.07
2019-01-17T19:30:27.395Z,1.10
2019-01-17T19:32:55.871Z,0.67
2019-01-17T19:35:24.304Z,1.00
2019-01-17T19:37:52.610Z,0.80
2019-01-17T19:40:22.198Z,0.70
2019-01-17T19:42:51.376Z,0.80
2019-01-17T19:45:19.849Z,0.70
2019-01-17T19:47:48.363Z,0.77
2019-01-17T19:50:18.356Z,1.33
2019-01-17T19:52:46.677Z,0.70
2019-01-17T19:55:16.803Z,0.77
2019-01-17T19:57:45.189Z,0.50
2019-01-17T20:00:14.017Z,0.57
2019-01-17T20:02:42.517Z,0.80
2019-01-17T20:05:11.729Z,0.77
2019-01-17T20:07:40.182Z,0.60
2019-01-17T20:10:10.338Z,0.90
2019-01-17T20:12:38.738Z,0.63
2019-01-17T20:15:07.373Z,0.70
2019-01-17T20:17:35.762Z,0.43
2019-01-17T20:20:04.573Z,0.60
2019-01-17T20:22:33.101Z,0.73
2019-01-17T20:25:01.497Z,0.70
2019-01-17T20:27:29.997Z,0.90
2019-01-17T20:29:58.706Z,1.03
2019-01-17T20:32:27.080Z,0.57
2019-01-17T20:34:55.584Z,0.73
2019-01-17T20:37:23.914Z,0.97
2019-01-17T20:39:52.311Z,0.70
2019-01-17T20:42:20.701Z,0.80
2019-01-17T20:44:49.188Z,0.50
2019-01-17T20:47:18.092Z,0.90
2019-01-17T20:49:46.478Z,0.40
2019-01-17T20:52:15.010Z,0.70
2019-01-17T20:54:43.418Z,0.87
2019-01-17T20:57:12.363Z,1.20
2019-01-17T20:59:40.746Z,0.50
2019-01-17T21:02:10.918Z,0.87
2019-01-17T21:04:39.296Z,0.80
2019-01-17T21:07:07.665Z,0.70
2019-01-17T21:09:36.069Z,0.97
2019-01-17T21:12:04.639Z,0.90
2019-01-17T21:14:33.153Z,1.40
2019-01-17T21:17:01.553Z,0.87
2019-01-17T21:19:29.917Z,0.80
2019-01-17T21:21:58.559Z,0.80
2019-01-17T21:24:26.893Z,0.50
2019-01-17T21:26:55.217Z,0.63
2019-01-17T21:29:23.595Z,1.37
2019-01-17T21:31:52.025Z,1.00
2019-01-17T21:34:20.334Z,0.80
2019-01-17T21:36:49.751Z,1.10
2019-01-17T21:39:18.237Z,0.50
2019-01-17T21:41:46.717Z,1.10
2019-01-17T21:44:15.069Z,0.40
2019-01-17T21:46:43.369Z,0.57
2019-01-17T21:49:11.705Z,0.60
2019-01-17T21:51:40.023Z,0.63
2019-01-17T21:54:08.426Z,0.73
2019-01-17T21:56:42.805Z,0.40
2019-01-17T21:59:11.414Z,0.30
2019-01-17T22:01:39.809Z,0.60
2019-01-17T22:04:08.134Z,0.20
2019-01-17T22:06:36.566Z,0.40
2019-01-17T22:09:06.358Z,0.30
2019-01-17T22:11:34.770Z,0.40
2019-01-17T22:14:03.105Z,0.50
2019-01-17T22:16:31.428Z,0.73
2019-01-17T22:19:00.035Z,0.40
2019-01-17T22:21:28.496Z,0.33
2019-01-17T22:23:56.861Z,0.50
2019-01-17T22:26:25.213Z,0.20
2019-01-17T22:28:53.601Z,0.50
2019-01-17T22:31:21.986Z,0.50
2019-01-17T22:33:50.557Z,0.60
2019-01-17T22:36:18.935Z,0.50
2019-01-17T22:38:47.364Z,0.30
2019-01-17T22:41:15.837Z,0.20
2019-01-17T22:43:44.185Z,0.57
2019-01-17T22:46:12.774Z,0.27
2019-01-17T22:48:41.197Z,0.57
2019-01-17T22:51:09.513Z,0.50
2019-01-17T22:53:37.890Z,0.77
2019-01-17T22:56:06.270Z,0.30
2019-01-17T22:58:35.895Z,0.30
2019-01-17T23:01:35.773Z,0.20
2019-01-17T23:04:05.264Z,0.53
2019-01-17T23:06:33.719Z,0.23
2019-01-17T23:09:02.186Z,0.63
2019-01-17T23:11:30.617Z,0.77
2019-01-17T23:13:58.998Z,0.70
2019-01-17T23:16:27.331Z,0.80
2019-01-17T23:18:55.682Z,0.20
2019-01-17T23:21:24.094Z,0.53
2019-01-17T23:23:52.549Z,0.47
2019-01-17T23:26:20.917Z,0.70
2019-01-17T23:28:49.221Z,0.10
2019-01-17T23:31:17.613Z,0.40
2019-01-17T23:33:45.927Z,0.43
2019-01-17T23:36:14.249Z,0.27
2019-01-17T23:38:42.641Z,0.60
2019-01-17T23:41:11.017Z,0.33
2019-01-17T23:43:39.330Z,0.40
2019-01-17T23:46:07.687Z,0.73
2019-01-17T23:48:35.989Z,0.50
2019-01-17T23:51:04.309Z,0.40
2019-01-17T23:53:32.635Z,0.50
2019-01-17T23:56:01.001Z,0.30
2019-01-17T23:58:29.310Z,0.47
